sensor_id;sensor_type;location;lat;lon;timestamp;P1;durP1;ratioP1;P2;durP2;ratioP2
14092;SDS011;7123;49.468;10.992;2023-02-15T00:01:59;17.23;;;11.30;;
14092;SDS011;7123;49.468;10.992;2023-02-15T00:04:26;17.40;;;11.17;;
14092;SDS011;7123;49.468;10.992;2023-02-15T00:07:13;16.67;;;11.53;;
14092;SDS011;7123;49.468;10.992;2023-02-15T00:09:41;17.43;;;11.23;;
14092;SDS011;7123;49.468;10.992;2023-02-15T00:12:08;16.90;;;11.33;;
14092;SDS011;7123;49.468;10.992;2023-02-15T00:14:36;15.37;;;10.47;;
14092;SDS011;7123;49.468;10.992;2023-02-15T00:17:03;16.17;;;10.77;;
14092;SDS011;7123;49.468;10.992;2023-02-15T00:19:35;18.03;;;11.43;;
14092;SDS011;7123;49.468;10.992;2023-02-15T00:22:02;18.20;;;11.13;;
14092;SDS011;7123;49.468;10.992;2023-02-15T00:24:29;18.07;;;11.50;;
14092;SDS011;7123;49.468;10.992;2023-02-15T00:26:56;18.03;;;11.23;;
14092;SDS011;7123;49.468;10.992;2023-02-15T00:29:24;15.93;;;10.67;;
14092;SDS011;7123;49.468;10.992;2023-02-15T00:31:50;17.00;;;11.13;;
14092;SDS011;7123;49.468;10.992;2023-02-15T00:34:22;15.53;;;10.03;;
14092;SDS011;7123;49.468;10.992;2023-02-15T00:36:50;14.40;;;10.03;;
14092;SDS011;7123;49.468;10.992;2023-02-15T00:39:17;16.30;;;11.13;;
14092;SDS011;7123;49.468;10.992;2023-02-15T00:41:45;15.60;;;10.10;;
14092;SDS011;7123;49.468;10.992;2023-02-15T00:44:13;16.93;;;10.47;;
14092;SDS011;7123;49.468;10.992;2023-02-15T00:46:41;15.57;;;10.33;;
14092;SDS011;7123;49.468;10.992;2023-02-15T00:49:08;15.60;;;10.03;;
14092;SDS011;7123;49.468;10.992;2023-02-15T00:51:35;16.73;;;11.03;;
14092;SDS011;7123;49.468;10.992;2023-02-15T00:54:02;15.57;;;10.50;;
14092;SDS011;7123;49.468;10.992;2023-02-15T00:56:29;15.57;;;10.90;;
14092;SDS011;7123;49.468;10.992;2023-02-15T00:58:55;17.70;;;10.37;;
14092;SDS011;7123;49.468;10.992;2023-02-15T01:01:22;16.10;;;10.40;;
14092;SDS011;7123;49.468;10.992;2023-02-15T01:03:49;14.40;;;9.67;;
14092;SDS011;7123;49.468;10.992;2023-02-15T01:06:16;15.43;;;9.50;;
14092;SDS011;7123;49.468;10.992;2023-02-15T01:08:43;13.63;;;10.00;;
14092;SDS011;7123;49.468;10.992;2023-02-15T01:11:13;15.13;;;10.23;;
14092;SDS011;7123;49.468;10.992;2023-02-15T01:13:49;14.57;;;9.60;;
14092;SDS011;7123;49.468;10.992;2023-02-15T01:16:17;14.43;;;9.77;;
14092;SDS011;7123;49.468;10.992;2023-02-15T01:18:45;14.87;;;8.93;;
14092;SDS011;7123;49.468;10.992;2023-02-15T01:21:13;12.90;;;9.23;;
14092;SDS011;7123;49.468;10.992;2023-02-15T01:23:41;14.57;;;9.40;;
14092;SDS011;7123;49.468;10.992;2023-02-15T01:26:09;13.37;;;9.17;;
14092;SDS011;7123;49.468;10.992;2023-02-15T01:28:36;13.77;;;9.07;;
14092;SDS011;7123;49.468;10.992;2023-02-15T01:31:07;11.73;;;8.83;;
14092;SDS011;7123;49.468;10.992;2023-02-15T01:33:35;12.87;;;8.93;;
14092;SDS011;7123;49.468;10.992;2023-02-15T01:36:03;13.57;;;8.67;;
14092;SDS011;7123;49.468;10.992;2023-02-15T01:38:31;13.47;;;9.23;;
14092;SDS011;7123;49.468;10.992;2023-02-15T01:40:58;13.17;;;9.07;;
14092;SDS011;7123;49.468;10.992;2023-02-15T01:44:03;13.70;;;8.60;;
14092;SDS011;7123;49.468;10.992;2023-02-15T01:46:51;12.67;;;8.27;;
14092;SDS011;7123;49.468;10.992;2023-02-15T01:49:19;12.60;;;8.57;;
14092;SDS011;7123;49.468;10.992;2023-02-15T01:51:49;13.63;;;8.50;;
14092;SDS011;7123;49.468;10.992;2023-02-15T01:54:23;12.00;;;8.13;;
14092;SDS011;7123;49.468;10.992;2023-02-15T01:56:56;13.50;;;9.23;;
14092;SDS011;7123;49.468;10.992;2023-02-15T01:59:26;12.17;;;8.23;;
14092;SDS011;7123;49.468;10.992;2023-02-15T02:01:54;12.90;;;8.67;;
14092;SDS011;7123;49.468;10.992;2023-02-15T02:07:02;13.63;;;8.77;;
14092;SDS011;7123;49.468;10.992;2023-02-15T02:09:30;11.00;;;8.40;;
14092;SDS011;7123;49.468;10.992;2023-02-15T02:11:57;13.30;;;8.80;;
14092;SDS011;7123;49.468;10.992;2023-02-15T02:14:25;11.30;;;8.13;;
14092;SDS011;7123;49.468;10.992;2023-02-15T02:16:55;13.53;;;8.90;;
14092;SDS011;7123;49.468;10.992;2023-02-15T02:23:04;13.93;;;8.80;;
14092;SDS011;7123;49.468;10.992;2023-02-15T02:36:39;13.93;;;8.90;;
14092;SDS011;7123;49.468;10.992;2023-02-15T02:41:58;13.37;;;8.97;;
14092;SDS011;7123;49.468;10.992;2023-02-15T02:44:53;15.90;;;10.00;;
14092;SDS011;7123;49.468;10.992;2023-02-15T02:47:29;14.63;;;9.77;;
14092;SDS011;7123;49.468;10.992;2023-02-15T02:50:07;13.57;;;9.20;;
14092;SDS011;7123;49.468;10.992;2023-02-15T02:52:42;14.20;;;9.10;;
14092;SDS011;7123;49.468;10.992;2023-02-15T02:55:18;14.90;;;9.50;;
14092;SDS011;7123;49.468;10.992;2023-02-15T03:00:35;18.37;;;9.53;;
14092;SDS011;7123;49.468;10.992;2023-02-15T03:03:10;13.47;;;9.17;;
14092;SDS011;7123;49.468;10.992;2023-02-15T03:05:44;14.63;;;9.37;;
14092;SDS011;7123;49.468;10.992;2023-02-15T03:08:14;14.33;;;9.77;;
14092;SDS011;7123;49.468;10.992;2023-02-15T03:10:48;13.80;;;9.37;;
14092;SDS011;7123;49.468;10.992;2023-02-15T03:13:19;14.87;;;9.47;;
14092;SDS011;7123;49.468;10.992;2023-02-15T03:15:46;14.03;;;8.83;;
14092;SDS011;7123;49.468;10.992;2023-02-15T03:18:35;13.80;;;9.20;;
14092;SDS011;7123;49.468;10.992;2023-02-15T03:21:06;12.67;;;8.30;;
14092;SDS011;7123;49.468;10.992;2023-02-15T03:23:34;14.77;;;8.90;;
14092;SDS011;7123;49.468;10.992;2023-02-15T03:26:04;13.07;;;8.93;;
14092;SDS011;7123;49.468;10.992;2023-02-15T03:28:35;12.57;;;8.50;;
14092;SDS011;7123;49.468;10.992;2023-02-15T03:31:07;12.63;;;8.37;;
14092;SDS011;7123;49.468;10.992;2023-02-15T03:33:37;13.60;;;8.70;;
14092;SDS011;7123;49.468;10.992;2023-02-15T03:36:17;13.30;;;8.47;;
14092;SDS011;7123;49.468;10.992;2023-02-15T03:41:59;11.90;;;8.00;;
14092;SDS011;7123;49.468;10.992;2023-02-15T03:44:33;12.97;;;8.53;;
14092;SDS011;7123;49.468;10.992;2023-02-15T03:47:08;12.40;;;8.20;;
14092;SDS011;7123;49.468;10.992;2023-02-15T03:52:54;10.13;;;7.07;;
14092;SDS011;7123;49.468;10.992;2023-02-15T03:55:23;11.90;;;8.07;;
14092;SDS011;7123;49.468;10.992;2023-02-15T03:57:50;9.97;;;7.17;;
14092;SDS011;7123;49.468;10.992;2023-02-15T04:00:37;11.90;;;7.73;;
14092;SDS011;7123;49.468;10.992;2023-02-15T04:06:09;10.73;;;7.07;;
14092;SDS011;7123;49.468;10.992;2023-02-15T04:08:35;12.00;;;7.60;;
14092;SDS011;7123;49.468;10.992;2023-02-15T04:11:21;11.20;;;7.03;;
14092;SDS011;7123;49.468;10.992;2023-02-15T04:13:47;10.60;;;7.40;;
14092;SDS011;7123;49.468;10.992;2023-02-15T04:16:25;11.00;;;7.60;;
14092;SDS011;7123;49.468;10.992;2023-02-15T04:18:54;10.70;;;7.13;;
14092;SDS011;7123;49.468;10.992;2023-02-15T04:21:40;9.77;;;7.17;;
14092;SDS011;7123;49.468;10.992;2023-02-15T04:24:25;9.57;;;6.93;;
14092;SDS011;7123;49.468;10.992;2023-02-15T04:27:10;10.87;;;7.43;;
14092;SDS011;7123;49.468;10.992;2023-02-15T04:29:37;12.40;;;8.07;;
14092;SDS011;7123;49.468;10.992;2023-02-15T04:32:04;9.23;;;7.27;;
14092;SDS011;7123;49.468;10.992;2023-02-15T04:34:31;11.87;;;8.10;;
14092;SDS011;7123;49.468;10.992;2023-02-15T04:36:58;12.03;;;8.07;;
14092;SDS011;7123;49.468;10.992;2023-02-15T04:39:24;12.07;;;7.80;;
14092;SDS011;7123;49.468;10.992;2023-02-15T04:41:51;10.93;;;7.37;;
14092;SDS011;7123;49.468;10.992;2023-02-15T04:44:18;12.40;;;7.93;;
14092;SDS011;7123;49.468;10.992;2023-02-15T04:46:44;12.63;;;7.67;;
14092;SDS011;7123;49.468;10.992;2023-02-15T04:49:11;11.40;;;7.67;;
14092;SDS011;7123;49.468;10.992;2023-02-15T04:51:38;11.93;;;7.57;;
14092;SDS011;7123;49.468;10.992;2023-02-15T04:54:04;12.70;;;8.03;;
14092;SDS011;7123;49.468;10.992;2023-02-15T04:56:31;10.73;;;7.60;;
14092;SDS011;7123;49.468;10.992;2023-02-15T04:59:00;11.97;;;8.13;;
14092;SDS011;7123;49.468;10.992;2023-02-15T05:01:26;12.00;;;8.03;;
14092;SDS011;7123;49.468;10.992;2023-02-15T05:03:54;14.97;;;8.53;;
14092;SDS011;7123;49.468;10.992;2023-02-15T05:06:20;10.87;;;7.60;;
14092;SDS011;7123;49.468;10.992;2023-02-15T05:08:47;12.70;;;8.30;;
14092;SDS011;7123;49.468;10.992;2023-02-15T05:11:14;11.27;;;7.70;;
14092;SDS011;7123;49.468;10.992;2023-02-15T05:13:40;11.63;;;7.77;;
14092;SDS011;7123;49.468;10.992;2023-02-15T05:16:07;11.20;;;7.97;;
14092;SDS011;7123;49.468;10.992;2023-02-15T05:18:34;11.30;;;8.20;;
14092;SDS011;7123;49.468;10.992;2023-02-15T05:21:01;13.10;;;8.53;;
14092;SDS011;7123;49.468;10.992;2023-02-15T05:23:27;12.07;;;8.20;;
14092;SDS011;7123;49.468;10.992;2023-02-15T05:25:54;13.27;;;8.53;;
14092;SDS011;7123;49.468;10.992;2023-02-15T05:28:39;14.93;;;9.23;;
14092;SDS011;7123;49.468;10.992;2023-02-15T05:33:38;12.60;;;8.87;;
14092;SDS011;7123;49.468;10.992;2023-02-15T05:36:05;12.90;;;8.20;;
14092;SDS011;7123;49.468;10.992;2023-02-15T05:38:32;13.40;;;8.93;;
14092;SDS011;7123;49.468;10.992;2023-02-15T05:40:59;15.27;;;9.60;;
14092;SDS011;7123;49.468;10.992;2023-02-15T05:43:26;15.57;;;9.77;;
14092;SDS011;7123;49.468;10.992;2023-02-15T05:45:54;15.33;;;9.87;;
14092;SDS011;7123;49.468;10.992;2023-02-15T05:48:22;13.83;;;9.80;;
14092;SDS011;7123;49.468;10.992;2023-02-15T05:51:23;14.83;;;9.23;;
14092;SDS011;7123;49.468;10.992;2023-02-15T05:53:43;13.63;;;9.17;;
14092;SDS011;7123;49.468;10.992;2023-02-15T05:56:10;14.40;;;9.40;;
14092;SDS011;7123;49.468;10.992;2023-02-15T05:58:38;16.87;;;9.90;;
14092;SDS011;7123;49.468;10.992;2023-02-15T06:01:13;14.93;;;9.80;;
14092;SDS011;7123;49.468;10.992;2023-02-15T06:03:41;15.90;;;9.93;;
14092;SDS011;7123;49.468;10.992;2023-02-15T06:06:08;13.90;;;9.90;;
14092;SDS011;7123;49.468;10.992;2023-02-15T06:08:36;15.10;;;9.73;;
14092;SDS011;7123;49.468;10.992;2023-02-15T06:11:06;15.67;;;9.87;;
14092;SDS011;7123;49.468;10.992;2023-02-15T06:13:33;14.63;;;9.23;;
14092;SDS011;7123;49.468;10.992;2023-02-15T06:16:04;15.47;;;9.37;;
14092;SDS011;7123;49.468;10.992;2023-02-15T06:18:31;15.63;;;10.67;;
14092;SDS011;7123;49.468;10.992;2023-02-15T06:20:58;14.40;;;9.60;;
14092;SDS011;7123;49.468;10.992;2023-02-15T06:23:25;16.13;;;9.93;;
14092;SDS011;7123;49.468;10.992;2023-02-15T06:25:51;14.87;;;9.73;;
14092;SDS011;7123;49.468;10.992;2023-02-15T06:28:18;16.37;;;9.50;;
14092;SDS011;7123;49.468;10.992;2023-02-15T06:30:45;14.57;;;9.17;;
14092;SDS011;7123;49.468;10.992;2023-02-15T06:33:12;14.77;;;9.07;;
14092;SDS011;7123;49.468;10.992;2023-02-15T06:35:39;15.03;;;9.83;;
14092;SDS011;7123;49.468;10.992;2023-02-15T06:38:06;14.87;;;9.50;;
14092;SDS011;7123;49.468;10.992;2023-02-15T06:40:33;14.07;;;9.10;;
14092;SDS011;7123;49.468;10.992;2023-02-15T06:42:59;18.00;;;10.60;;
14092;SDS011;7123;49.468;10.992;2023-02-15T06:45:30;16.27;;;9.77;;
14092;SDS011;7123;49.468;10.992;2023-02-15T06:47:56;14.13;;;9.93;;
14092;SDS011;7123;49.468;10.992;2023-02-15T06:50:23;16.00;;;9.87;;
14092;SDS011;7123;49.468;10.992;2023-02-15T06:52:54;16.53;;;9.80;;
14092;SDS011;7123;49.468;10.992;2023-02-15T06:55:22;14.93;;;9.37;;
14092;SDS011;7123;49.468;10.992;2023-02-15T06:57:49;14.53;;;9.10;;
14092;SDS011;7123;49.468;10.992;2023-02-15T07:00:16;14.83;;;9.33;;
14092;SDS011;7123;49.468;10.992;2023-02-15T07:02:44;15.37;;;10.13;;
14092;SDS011;7123;49.468;10.992;2023-02-15T07:05:11;15.57;;;9.67;;
14092;SDS011;7123;49.468;10.992;2023-02-15T07:07:38;16.77;;;9.93;;
14092;SDS011;7123;49.468;10.992;2023-02-15T07:10:05;14.50;;;9.93;;
14092;SDS011;7123;49.468;10.992;2023-02-15T07:12:32;19.50;;;10.63;;
14092;SDS011;7123;49.468;10.992;2023-02-15T07:15:08;17.30;;;10.30;;
14092;SDS011;7123;49.468;10.992;2023-02-15T07:17:40;16.00;;;9.43;;
14092;SDS011;7123;49.468;10.992;2023-02-15T07:20:11;15.27;;;9.70;;
14092;SDS011;7123;49.468;10.992;2023-02-15T07:22:43;19.07;;;10.50;;
14092;SDS011;7123;49.468;10.992;2023-02-15T07:25:10;16.43;;;9.83;;
14092;SDS011;7123;49.468;10.992;2023-02-15T07:27:38;16.73;;;10.10;;
14092;SDS011;7123;49.468;10.992;2023-02-15T07:30:06;15.57;;;9.30;;
14092;SDS011;7123;49.468;10.992;2023-02-15T07:32:35;14.80;;;9.27;;
14092;SDS011;7123;49.468;10.992;2023-02-15T07:35:02;15.50;;;10.13;;
14092;SDS011;7123;49.468;10.992;2023-02-15T07:37:29;15.83;;;10.13;;
14092;SDS011;7123;49.468;10.992;2023-02-15T07:39:56;18.40;;;11.10;;
14092;SDS011;7123;49.468;10.992;2023-02-15T07:42:22;18.27;;;11.03;;
14092;SDS011;7123;49.468;10.992;2023-02-15T07:44:49;20.87;;;12.20;;
14092;SDS011;7123;49.468;10.992;2023-02-15T07:47:16;18.70;;;11.20;;
14092;SDS011;7123;49.468;10.992;2023-02-15T07:49:42;20.97;;;12.00;;
14092;SDS011;7123;49.468;10.992;2023-02-15T07:52:09;16.47;;;10.07;;
14092;SDS011;7123;49.468;10.992;2023-02-15T07:54:36;18.53;;;10.83;;
14092;SDS011;7123;49.468;10.992;2023-02-15T07:57:02;21.90;;;10.87;;
14092;SDS011;7123;49.468;10.992;2023-02-15T07:59:29;16.70;;;10.23;;
14092;SDS011;7123;49.468;10.992;2023-02-15T08:01:56;14.53;;;9.50;;
14092;SDS011;7123;49.468;10.992;2023-02-15T08:04:23;15.53;;;9.53;;
14092;SDS011;7123;49.468;10.992;2023-02-15T08:06:53;18.17;;;9.87;;
14092;SDS011;7123;49.468;10.992;2023-02-15T08:09:21;15.97;;;9.73;;
14092;SDS011;7123;49.468;10.992;2023-02-15T08:11:48;17.73;;;10.10;;
14092;SDS011;7123;49.468;10.992;2023-02-15T08:14:18;21.23;;;11.13;;
14092;SDS011;7123;49.468;10.992;2023-02-15T08:16:49;19.27;;;12.07;;
14092;SDS011;7123;49.468;10.992;2023-02-15T08:19:18;17.43;;;11.30;;
14092;SDS011;7123;49.468;10.992;2023-02-15T08:21:56;21.87;;;11.57;;
14092;SDS011;7123;49.468;10.992;2023-02-15T08:24:25;17.47;;;11.20;;
14092;SDS011;7123;49.468;10.992;2023-02-15T08:26:54;16.80;;;10.90;;
14092;SDS011;7123;49.468;10.992;2023-02-15T08:29:22;18.13;;;10.57;;
14092;SDS011;7123;49.468;10.992;2023-02-15T08:31:54;17.53;;;10.67;;
14092;SDS011;7123;49.468;10.992;2023-02-15T08:34:29;15.63;;;9.77;;
14092;SDS011;7123;49.468;10.992;2023-02-15T08:36:57;13.97;;;9.00;;
14092;SDS011;7123;49.468;10.992;2023-02-15T08:39:23;16.07;;;9.83;;
14092;SDS011;7123;49.468;10.992;2023-02-15T08:41:50;14.50;;;9.30;;
14092;SDS011;7123;49.468;10.992;2023-02-15T08:44:18;17.10;;;10.27;;
14092;SDS011;7123;49.468;10.992;2023-02-15T08:46:46;16.13;;;9.87;;
14092;SDS011;7123;49.468;10.992;2023-02-15T08:49:17;16.40;;;10.07;;
14092;SDS011;7123;49.468;10.992;2023-02-15T08:51:46;17.43;;;10.83;;
14092;SDS011;7123;49.468;10.992;2023-02-15T08:54:15;16.47;;;10.47;;
14092;SDS011;7123;49.468;10.992;2023-02-15T08:56:45;14.70;;;10.07;;
14092;SDS011;7123;49.468;10.992;2023-02-15T08:59:13;15.23;;;10.13;;
14092;SDS011;7123;49.468;10.992;2023-02-15T09:01:44;17.03;;;10.77;;
14092;SDS011;7123;49.468;10.992;2023-02-15T09:04:12;17.13;;;10.27;;
14092;SDS011;7123;49.468;10.992;2023-02-15T09:06:39;19.33;;;10.87;;
14092;SDS011;7123;49.468;10.992;2023-02-15T09:09:07;15.97;;;9.90;;
14092;SDS011;7123;49.468;10.992;2023-02-15T09:11:38;19.70;;;11.07;;
14092;SDS011;7123;49.468;10.992;2023-02-15T09:14:17;18.03;;;10.80;;
14092;SDS011;7123;49.468;10.992;2023-02-15T09:16:46;18.67;;;10.80;;
14092;SDS011;7123;49.468;10.992;2023-02-15T09:19:18;18.53;;;10.70;;
14092;SDS011;7123;49.468;10.992;2023-02-15T09:21:46;15.57;;;9.77;;
14092;SDS011;7123;49.468;10.992;2023-02-15T09:24:14;17.33;;;10.60;;
14092;SDS011;7123;49.468;10.992;2023-02-15T09:26:42;18.67;;;10.60;;
14092;SDS011;7123;49.468;10.992;2023-02-15T09:29:14;18.60;;;11.60;;
14092;SDS011;7123;49.468;10.992;2023-02-15T09:31:43;17.83;;;10.87;;
14092;SDS011;7123;49.468;10.992;2023-02-15T09:34:12;14.60;;;9.80;;
14092;SDS011;7123;49.468;10.992;2023-02-15T09:36:42;17.93;;;11.20;;
14092;SDS011;7123;49.468;10.992;2023-02-15T09:50:33;19.07;;;10.23;;
14092;SDS011;7123;49.468;10.992;2023-02-15T10:01:35;17.73;;;10.30;;
14092;SDS011;7123;49.468;10.992;2023-02-15T10:12:39;16.23;;;10.13;;
14092;SDS011;7123;49.468;10.992;2023-02-15T10:18:00;18.93;;;10.33;;
14092;SDS011;7123;49.468;10.992;2023-02-15T10:23:32;15.60;;;10.37;;
14092;SDS011;7123;49.468;10.992;2023-02-15T10:26:50;20.23;;;10.07;;
14092;SDS011;7123;49.468;10.992;2023-02-15T10:37:16;17.47;;;10.97;;
14092;SDS011;7123;49.468;10.992;2023-02-15T10:43:02;22.67;;;11.43;;
14092;SDS011;7123;49.468;10.992;2023-02-15T10:51:52;19.93;;;11.50;;
14092;SDS011;7123;49.468;10.992;2023-02-15T10:57:39;19.77;;;11.27;;
14092;SDS011;7123;49.468;10.992;2023-02-15T11:05:47;17.63;;;11.00;;
14092;SDS011;7123;49.468;10.992;2023-02-15T11:08:32;22.53;;;11.13;;
14092;SDS011;7123;49.468;10.992;2023-02-15T11:11:10;18.00;;;10.60;;
14092;SDS011;7123;49.468;10.992;2023-02-15T11:13:44;20.30;;;11.23;;
14092;SDS011;7123;49.468;10.992;2023-02-15T11:16:16;19.27;;;11.30;;
14092;SDS011;7123;49.468;10.992;2023-02-15T11:18:51;16.80;;;10.60;;
14092;SDS011;7123;49.468;10.992;2023-02-15T11:21:22;16.60;;;10.37;;
14092;SDS011;7123;49.468;10.992;2023-02-15T11:23:53;17.13;;;10.90;;
14092;SDS011;7123;49.468;10.992;2023-02-15T11:28:57;18.03;;;11.17;;
14092;SDS011;7123;49.468;10.992;2023-02-15T11:31:49;17.93;;;10.80;;
14092;SDS011;7123;49.468;10.992;2023-02-15T11:34:22;16.30;;;10.33;;
14092;SDS011;7123;49.468;10.992;2023-02-15T11:36:52;16.50;;;10.73;;
14092;SDS011;7123;49.468;10.992;2023-02-15T11:39:20;16.03;;;10.90;;
14092;SDS011;7123;49.468;10.992;2023-02-15T11:41:50;18.30;;;11.40;;
14092;SDS011;7123;49.468;10.992;2023-02-15T11:44:32;21.10;;;11.50;;
14092;SDS011;7123;49.468;10.992;2023-02-15T11:47:07;17.30;;;10.77;;
14092;SDS011;7123;49.468;10.992;2023-02-15T11:49:38;19.73;;;11.63;;
14092;SDS011;7123;49.468;10.992;2023-02-15T11:52:06;21.67;;;11.77;;
14092;SDS011;7123;49.468;10.992;2023-02-15T11:54:37;20.80;;;11.87;;
14092;SDS011;7123;49.468;10.992;2023-02-15T12:03:12;19.80;;;12.07;;
14092;SDS011;7123;49.468;10.992;2023-02-15T12:05:49;20.87;;;12.10;;
14092;SDS011;7123;49.468;10.992;2023-02-15T12:08:24;18.47;;;11.10;;
14092;SDS011;7123;49.468;10.992;2023-02-15T12:11:06;17.60;;;11.27;;
14092;SDS011;7123;49.468;10.992;2023-02-15T12:16:27;17.33;;;11.50;;
14092;SDS011;7123;49.468;10.992;2023-02-15T12:18:58;22.40;;;12.43;;
14092;SDS011;7123;49.468;10.992;2023-02-15T12:21:30;17.80;;;11.93;;
14092;SDS011;7123;49.468;10.992;2023-02-15T12:24:18;17.33;;;11.13;;
14092;SDS011;7123;49.468;10.992;2023-02-15T12:26:58;20.77;;;12.47;;
14092;SDS011;7123;49.468;10.992;2023-02-15T12:29:46;23.40;;;11.97;;
14092;SDS011;7123;49.468;10.992;2023-02-15T12:32:22;24.37;;;13.67;;
14092;SDS011;7123;49.468;10.992;2023-02-15T12:34:51;20.53;;;13.00;;
14092;SDS011;7123;49.468;10.992;2023-02-15T12:37:27;21.70;;;13.40;;
14092;SDS011;7123;49.468;10.992;2023-02-15T12:39:58;20.53;;;11.93;;
14092;SDS011;7123;49.468;10.992;2023-02-15T12:42:27;21.83;;;13.50;;
14092;SDS011;7123;49.468;10.992;2023-02-15T12:48:35;19.93;;;13.33;;
14092;SDS011;7123;49.468;10.992;2023-02-15T12:50:52;23.73;;;13.70;;
14092;SDS011;7123;49.468;10.992;2023-02-15T12:53:34;23.73;;;14.60;;
14092;SDS011;7123;49.468;10.992;2023-02-15T12:56:03;23.13;;;14.13;;
14092;SDS011;7123;49.468;10.992;2023-02-15T12:58:38;22.17;;;14.13;;
14092;SDS011;7123;49.468;10.992;2023-02-15T13:06:33;22.07;;;14.13;;
14092;SDS011;7123;49.468;10.992;2023-02-15T13:09:33;26.37;;;15.77;;
14092;SDS011;7123;49.468;10.992;2023-02-15T13:14:46;22.50;;;13.83;;
14092;SDS011;7123;49.468;10.992;2023-02-15T13:17:17;26.33;;;14.40;;
14092;SDS011;7123;49.468;10.992;2023-02-15T13:19:50;27.57;;;15.87;;
14092;SDS011;7123;49.468;10.992;2023-02-15T13:22:20;28.30;;;16.80;;
14092;SDS011;7123;49.468;10.992;2023-02-15T13:24:53;29.90;;;16.57;;
14092;SDS011;7123;49.468;10.992;2023-02-15T13:27:24;25.67;;;15.23;;
14092;SDS011;7123;49.468;10.992;2023-02-15T13:29:59;25.00;;;15.80;;
14092;SDS011;7123;49.468;10.992;2023-02-15T13:32:35;28.43;;;15.90;;
14092;SDS011;7123;49.468;10.992;2023-02-15T13:35:04;25.17;;;15.93;;
14092;SDS011;7123;49.468;10.992;2023-02-15T13:37:40;24.50;;;15.87;;
14092;SDS011;7123;49.468;10.992;2023-02-15T13:40:35;25.27;;;16.20;;
14092;SDS011;7123;49.468;10.992;2023-02-15T13:48:48;29.77;;;17.57;;
14092;SDS011;7123;49.468;10.992;2023-02-15T14:00:14;28.77;;;16.70;;
14092;SDS011;7123;49.468;10.992;2023-02-15T14:02:58;28.17;;;16.00;;
14092;SDS011;7123;49.468;10.992;2023-02-15T14:10:59;26.33;;;15.13;;
14092;SDS011;7123;49.468;10.992;2023-02-15T14:13:58;23.90;;;14.67;;
14092;SDS011;7123;49.468;10.992;2023-02-15T14:17:09;25.00;;;15.07;;
14092;SDS011;7123;49.468;10.992;2023-02-15T14:20:03;25.30;;;15.87;;
14092;SDS011;7123;49.468;10.992;2023-02-15T14:23:04;25.87;;;15.17;;
14092;SDS011;7123;49.468;10.992;2023-02-15T14:25:44;29.63;;;16.27;;
14092;SDS011;7123;49.468;10.992;2023-02-15T14:28:20;27.10;;;15.97;;
14092;SDS011;7123;49.468;10.992;2023-02-15T14:30:56;23.70;;;14.93;;
14092;SDS011;7123;49.468;10.992;2023-02-15T14:36:01;24.73;;;16.43;;
14092;SDS011;7123;49.468;10.992;2023-02-15T14:41:25;23.97;;;15.50;;
14092;SDS011;7123;49.468;10.992;2023-02-15T14:44:29;27.33;;;16.87;;
14092;SDS011;7123;49.468;10.992;2023-02-15T14:47:26;22.97;;;15.53;;
14092;SDS011;7123;49.468;10.992;2023-02-15T14:49:56;26.57;;;15.57;;
14092;SDS011;7123;49.468;10.992;2023-02-15T14:52:23;25.57;;;15.40;;
14092;SDS011;7123;49.468;10.992;2023-02-15T14:59:46;22.77;;;15.47;;
14092;SDS011;7123;49.468;10.992;2023-02-15T15:05:33;22.87;;;15.40;;
14092;SDS011;7123;49.468;10.992;2023-02-15T15:08:02;27.27;;;16.80;;
14092;SDS011;7123;49.468;10.992;2023-02-15T15:10:36;23.57;;;16.27;;
14092;SDS011;7123;49.468;10.992;2023-02-15T15:18:52;21.93;;;15.00;;
14092;SDS011;7123;49.468;10.992;2023-02-15T15:38:43;23.20;;;15.43;;
14092;SDS011;7123;49.468;10.992;2023-02-15T15:44:19;23.23;;;16.33;;
14092;SDS011;7123;49.468;10.992;2023-02-15T15:47:42;22.80;;;15.13;;
14092;SDS011;7123;49.468;10.992;2023-02-15T15:50:00;24.20;;;16.87;;
14092;SDS011;7123;49.468;10.992;2023-02-15T15:52:31;29.67;;;18.20;;
14092;SDS011;7123;49.468;10.992;2023-02-15T15:55:05;30.03;;;18.00;;
14092;SDS011;7123;49.468;10.992;2023-02-15T15:57:43;28.60;;;17.73;;
14092;SDS011;7123;49.468;10.992;2023-02-15T16:00:27;28.93;;;18.43;;
14092;SDS011;7123;49.468;10.992;2023-02-15T16:03:04;28.07;;;18.43;;
14092;SDS011;7123;49.468;10.992;2023-02-15T16:05:35;29.77;;;18.37;;
14092;SDS011;7123;49.468;10.992;2023-02-15T16:08:04;28.27;;;18.50;;
14092;SDS011;7123;49.468;10.992;2023-02-15T16:10:31;30.37;;;18.30;;
14092;SDS011;7123;49.468;10.992;2023-02-15T16:13:00;31.10;;;18.63;;
14092;SDS011;7123;49.468;10.992;2023-02-15T16:15:34;29.33;;;18.07;;
14092;SDS011;7123;49.468;10.992;2023-02-15T16:18:16;33.10;;;18.90;;
14092;SDS011;7123;49.468;10.992;2023-02-15T16:20:52;35.20;;;19.03;;
14092;SDS011;7123;49.468;10.992;2023-02-15T16:23:29;28.97;;;18.40;;
14092;SDS011;7123;49.468;10.992;2023-02-15T16:28:57;29.63;;;17.57;;
14092;SDS011;7123;49.468;10.992;2023-02-15T16:31:24;32.80;;;18.17;;
14092;SDS011;7123;49.468;10.992;2023-02-15T16:33:52;30.67;;;19.17;;
14092;SDS011;7123;49.468;10.992;2023-02-15T16:43:56;30.70;;;19.10;;
14092;SDS011;7123;49.468;10.992;2023-02-15T16:46:32;32.33;;;18.93;;
14092;SDS011;7123;49.468;10.992;2023-02-15T16:49:12;32.40;;;19.23;;
14092;SDS011;7123;49.468;10.992;2023-02-15T16:51:45;31.07;;;19.53;;
14092;SDS011;7123;49.468;10.992;2023-02-15T16:54:27;28.70;;;18.80;;
14092;SDS011;7123;49.468;10.992;2023-02-15T16:56:57;30.47;;;18.80;;
14092;SDS011;7123;49.468;10.992;2023-02-15T16:59:30;29.87;;;18.67;;
14092;SDS011;7123;49.468;10.992;2023-02-15T17:02:06;31.60;;;17.73;;
14092;SDS011;7123;49.468;10.992;2023-02-15T17:07:40;30.67;;;18.50;;
14092;SDS011;7123;49.468;10.992;2023-02-15T17:13:23;30.57;;;17.73;;
14092;SDS011;7123;49.468;10.992;2023-02-15T17:18:31;30.33;;;17.20;;
14092;SDS011;7123;49.468;10.992;2023-02-15T17:21:16;33.53;;;17.87;;
14092;SDS011;7123;49.468;10.992;2023-02-15T17:23:47;28.07;;;17.30;;
14092;SDS011;7123;49.468;10.992;2023-02-15T17:26:18;27.67;;;17.37;;
14092;SDS011;7123;49.468;10.992;2023-02-15T17:28:55;29.07;;;17.97;;
14092;SDS011;7123;49.468;10.992;2023-02-15T17:31:25;31.57;;;18.07;;
14092;SDS011;7123;49.468;10.992;2023-02-15T17:33:56;29.43;;;18.50;;
14092;SDS011;7123;49.468;10.992;2023-02-15T17:36:25;31.13;;;18.37;;
14092;SDS011;7123;49.468;10.992;2023-02-15T17:41:31;30.47;;;18.40;;
14092;SDS011;7123;49.468;10.992;2023-02-15T17:44:01;31.13;;;18.33;;
14092;SDS011;7123;49.468;10.992;2023-02-15T17:46:30;32.60;;;18.50;;
14092;SDS011;7123;49.468;10.992;2023-02-15T17:49:00;33.50;;;19.53;;
14092;SDS011;7123;49.468;10.992;2023-02-15T17:51:27;34.63;;;17.93;;
14092;SDS011;7123;49.468;10.992;2023-02-15T17:53:55;31.97;;;18.83;;
14092;SDS011;7123;49.468;10.992;2023-02-15T17:56:40;32.00;;;18.77;;
14092;SDS011;7123;49.468;10.992;2023-02-15T17:59:08;31.63;;;18.17;;
14092;SDS011;7123;49.468;10.992;2023-02-15T18:01:37;32.60;;;19.13;;
14092;SDS011;7123;49.468;10.992;2023-02-15T18:04:28;30.90;;;18.50;;
14092;SDS011;7123;49.468;10.992;2023-02-15T18:07:16;29.20;;;18.17;;
14092;SDS011;7123;49.468;10.992;2023-02-15T18:10:16;31.17;;;18.87;;
14092;SDS011;7123;49.468;10.992;2023-02-15T18:13:02;30.67;;;18.57;;
14092;SDS011;7123;49.468;10.992;2023-02-15T18:15:29;33.00;;;18.40;;